Time;durP1;ratioP1;P1;durP2;ratioP2;P2;SDS_P1;SDS_P2;PMS_P1;PMS_P2;Temp;Humidity;BMP_temperature;BMP_pressure;BME280_temperature;BME280_humidity;BME280_pressure;Samples;Min_cycle;Max_cycle;Signal;HPM_P1;HPM_P2
2021/01/11 00:01:21;;;;;;;21.55;14.35;;;;;;;;;;5006895;28;20078;-67
2021/01/11 00:03:46;;;;;;;20.67;13.95;;;;;;;;;;5007723;28;20398;-67
2021/01/11 00:06:12;;;;;;;17.95;12.35;;;;;;;;;;4998940;28;20045;-67
2021/01/11 00:08:37;;;;;;;35.80;13.80;;;;;;;;;;5004742;28;20038;-67
2021/01/11 00:11:02;;;;;;;24.27;14.07;;;;;;;;;;5007810;28;20044;-67
2021/01/11 00:13:28;;;;;;;16.35;11.77;;;;;;;;;;5005368;28;20124;-67
2021/01/11 00:15:53;;;;;;;17.73;12.70;;;;;;;;;;5006889;28;20113;-67
2021/01/11 00:18:18;;;;;;;21.90;15.73;;;;;;;;;;5007139;28;20058;-67
2021/01/11 00:20:44;;;;;;;22.08;16.08;;;;;;;;;;5007492;28;20029;-68
2021/01/11 00:23:09;;;;;;;27.85;19.45;;;;;;;;;;5005442;28;20061;-67
2021/01/11 00:25:34;;;;;;;24.20;17.80;;;;;;;;;;5005614;28;20065;-67
2021/01/11 00:27:59;;;;;;;22.10;15.63;;;;;;;;;;5007551;28;20548;-67
2021/01/11 00:30:25;;;;;;;24.02;14.63;;;;;;;;;;5006711;28;20120;-67
2021/01/11 00:32:50;;;;;;;19.10;13.25;;;;;;;;;;5003699;28;20464;-67
2021/01/11 00:35:15;;;;;;;17.85;12.18;;;;;;;;;;5007486;28;20034;-67
2021/01/11 00:37:41;;;;;;;19.30;11.95;;;;;;;;;;5003956;28;20145;-67
2021/01/11 00:40:07;;;;;;;18.70;12.98;;;;;;;;;;5006304;28;20034;-67
2021/01/11 00:42:35;;;;;;;17.45;12.70;;;;;;;;;;5005737;28;20052;-67
2021/01/11 00:45:01;;;;;;;20.88;14.45;;;;;;;;;;5003983;28;20042;-67
2021/01/11 00:47:26;;;;;;;20.17;14.02;;;;;;;;;;5006145;28;20072;-67
2021/01/11 00:49:51;;;;;;;20.27;14.52;;;;;;;;;;5005625;28;20066;-67
2021/01/11 00:52:17;;;;;;;21.65;13.48;;;;;;;;;;5006454;28;20057;-67
2021/01/11 00:54:42;;;;;;;20.95;13.07;;;;;;;;;;5004772;28;20092;-67
2021/01/11 00:57:08;;;;;;;18.80;13.63;;;;;;;;;;5003907;28;20108;-67
2021/01/11 00:59:34;;;;;;;17.58;12.82;;;;;;;;;;5004092;28;20133;-67
2021/01/11 01:02:01;;;;;;;19.00;12.23;;;;;;;;;;5007065;28;20485;-68
2021/01/11 01:04:26;;;;;;;18.40;12.23;;;;;;;;;;5005413;28;20123;-67
2021/01/11 01:06:52;;;;;;;17.48;12.00;;;;;;;;;;5002344;28;20065;-67
2021/01/11 01:09:17;;;;;;;16.38;11.30;;;;;;;;;;5006665;28;20044;-67
2021/01/11 01:11:43;;;;;;;22.30;12.73;;;;;;;;;;5006318;28;20092;-68
2021/01/11 01:14:09;;;;;;;19.30;11.73;;;;;;;;;;5006185;28;20038;-67
2021/01/11 01:16:35;;;;;;;16.25;11.20;;;;;;;;;;5001366;28;20119;-67
2021/01/11 01:19:00;;;;;;;15.05;11.00;;;;;;;;;;5007199;28;20469;-67
2021/01/11 01:21:27;;;;;;;20.27;11.38;;;;;;;;;;5009086;28;20041;-67
2021/01/11 01:23:52;;;;;;;16.92;10.75;;;;;;;;;;5010034;28;20049;-67
2021/01/11 01:26:19;;;;;;;16.55;12.00;;;;;;;;;;5010591;28;20046;-67
2021/01/11 01:28:44;;;;;;;15.30;11.77;;;;;;;;;;5010542;28;20032;-67
2021/01/11 01:31:10;;;;;;;18.35;12.02;;;;;;;;;;5008155;28;20030;-67
2021/01/11 01:33:35;;;;;;;15.70;11.30;;;;;;;;;;5009415;28;20112;-67
2021/01/11 01:36:01;;;;;;;15.65;11.50;;;;;;;;;;5010848;28;20046;-67
2021/01/11 01:38:26;;;;;;;16.65;11.43;;;;;;;;;;5025231;28;20090;-67
2021/01/11 01:40:52;;;;;;;20.27;12.32;;;;;;;;;;5006731;28;20046;-66
2021/01/11 01:43:17;;;;;;;20.00;12.10;;;;;;;;;;5008859;28;20037;-66
2021/01/11 01:45:42;;;;;;;19.05;13.18;;;;;;;;;;5009606;28;20034;-67
2021/01/11 01:48:09;;;;;;;20.98;13.90;;;;;;;;;;5008087;28;20516;-67
2021/01/11 01:50:36;;;;;;;21.00;13.00;;;;;;;;;;5008534;28;20065;-67
2021/01/11 01:53:02;;;;;;;20.67;13.70;;;;;;;;;;5009889;28;20040;-66
2021/01/11 01:55:28;;;;;;;24.95;14.95;;;;;;;;;;5008882;28;20504;-67
2021/01/11 01:57:58;;;;;;;24.90;15.05;;;;;;;;;;5008249;28;20068;-67
2021/01/11 02:00:23;;;;;;;23.50;14.13;;;;;;;;;;5004108;28;20046;-66
2021/01/11 02:02:48;;;;;;;25.98;15.32;;;;;;;;;;5007328;28;20084;-66
2021/01/11 02:05:14;;;;;;;26.40;14.82;;;;;;;;;;5006041;28;20026;-66
2021/01/11 02:07:58;;;;;;;24.00;15.00;;;;;;;;;;5006454;28;20080;-67
2021/01/11 02:10:33;;;;;;;20.05;13.25;;;;;;;;;;5008149;28;20072;-67
2021/01/11 02:13:16;;;;;;;23.10;14.02;;;;;;;;;;5008553;28;20033;-67
2021/01/11 02:16:01;;;;;;;17.55;13.32;;;;;;;;;;5008996;28;20048;-67
2021/01/11 02:18:45;;;;;;;19.02;13.48;;;;;;;;;;5002580;28;20060;-67
2021/01/11 02:21:32;;;;;;;17.40;12.13;;;;;;;;;;5009529;28;20034;-67
2021/01/11 02:24:39;;;;;;;21.42;12.75;;;;;;;;;;5010126;28;20547;-67
2021/01/11 02:27:36;;;;;;;20.65;13.43;;;;;;;;;;4926558;29;20051;-67
2021/01/11 02:30:05;;;;;;;19.90;13.57;;;;;;;;;;4977367;28;20046;-66
2021/01/11 02:32:30;;;;;;;19.55;12.98;;;;;;;;;;5007110;28;20037;-67
2021/01/11 02:34:59;;;;;;;18.13;11.98;;;;;;;;;;5008051;28;20041;-67
2021/01/11 02:37:25;;;;;;;17.90;12.65;;;;;;;;;;5008664;28;20121;-66
2021/01/11 02:39:51;;;;;;;19.92;12.77;;;;;;;;;;5009010;28;20571;-67
2021/01/11 02:42:16;;;;;;;25.15;15.30;;;;;;;;;;5007930;28;20743;-67
2021/01/11 02:44:42;;;;;;;28.50;17.88;;;;;;;;;;5008422;28;20057;-66
2021/01/11 02:47:07;;;;;;;47.97;28.00;;;;;;;;;;5009208;28;20038;-66
2021/01/11 02:49:38;;;;;;;55.72;32.17;;;;;;;;;;5008400;28;20086;-66
2021/01/11 02:52:04;;;;;;;64.95;39.17;;;;;;;;;;5005743;28;20041;-66
2021/01/11 02:54:40;;;;;;;51.20;31.98;;;;;;;;;;5007007;28;20037;-66
2021/01/11 02:57:51;;;;;;;40.92;25.08;;;;;;;;;;5008184;28;20038;-66
2021/01/11 03:00:19;;;;;;;25.80;16.40;;;;;;;;;;4997992;28;20076;-66
2021/01/11 03:02:47;;;;;;;36.88;21.48;;;;;;;;;;5007334;28;20072;-67
2021/01/11 03:05:13;;;;;;;30.08;18.08;;;;;;;;;;5008680;28;20038;-67
2021/01/11 03:07:51;;;;;;;25.55;14.55;;;;;;;;;;5008590;28;20744;-66
2021/01/11 03:10:17;;;;;;;24.98;13.65;;;;;;;;;;5006066;28;20022;-66
2021/01/11 03:12:42;;;;;;;18.98;13.10;;;;;;;;;;5007744;28;20416;-66
2021/01/11 03:15:08;;;;;;;22.30;13.70;;;;;;;;;;5008359;28;20416;-65
2021/01/11 03:17:33;;;;;;;18.33;12.82;;;;;;;;;;5007887;28;20107;-66
2021/01/11 03:19:59;;;;;;;20.77;12.52;;;;;;;;;;5007573;28;20038;-66
2021/01/11 03:22:24;;;;;;;20.13;13.38;;;;;;;;;;5004558;28;20038;-66
2021/01/11 03:24:49;;;;;;;21.70;13.13;;;;;;;;;;5008402;28;20617;-66
2021/01/11 03:27:15;;;;;;;19.20;12.40;;;;;;;;;;5008713;28;20401;-66
2021/01/11 03:29:40;;;;;;;18.50;12.40;;;;;;;;;;5006510;28;20420;-66
2021/01/11 03:32:05;;;;;;;24.92;14.95;;;;;;;;;;5008606;28;20048;-65
2021/01/11 03:34:30;;;;;;;20.75;12.70;;;;;;;;;;5007054;28;20156;-64
2021/01/11 03:36:56;;;;;;;19.98;13.52;;;;;;;;;;5008764;28;20026;-66
2021/01/11 03:39:21;;;;;;;20.90;12.88;;;;;;;;;;5002504;28;20037;-65
2021/01/11 03:41:47;;;;;;;19.15;13.40;;;;;;;;;;5004359;28;20080;-66
2021/01/11 03:44:13;;;;;;;18.35;12.88;;;;;;;;;;5007660;28;20422;-66
2021/01/11 03:46:38;;;;;;;21.52;14.52;;;;;;;;;;5007224;28;20040;-65
2021/01/11 03:49:04;;;;;;;17.55;12.70;;;;;;;;;;5006583;28;20042;-65
2021/01/11 03:51:29;;;;;;;18.85;13.35;;;;;;;;;;4997640;28;20544;-66
2021/01/11 03:53:55;;;;;;;21.30;14.13;;;;;;;;;;5003816;28;20137;-66
2021/01/11 03:56:21;;;;;;;20.73;13.95;;;;;;;;;;5007158;28;20473;-66
2021/01/11 03:58:46;;;;;;;23.48;14.32;;;;;;;;;;5008310;28;20029;-65
2021/01/11 04:01:12;;;;;;;20.88;13.20;;;;;;;;;;5006810;28;20095;-65
2021/01/11 04:03:37;;;;;;;22.42;13.45;;;;;;;;;;5006215;28;20117;-66
2021/01/11 04:06:04;;;;;;;23.90;13.35;;;;;;;;;;5002243;28;20037;-66
2021/01/11 04:08:29;;;;;;;22.58;13.25;;;;;;;;;;5006943;28;20184;-65
2021/01/11 04:10:55;;;;;;;18.20;12.75;;;;;;;;;;5005315;28;20533;-65
2021/01/11 04:13:20;;;;;;;17.00;12.43;;;;;;;;;;5005367;28;20076;-66
2021/01/11 04:15:46;;;;;;;18.77;12.88;;;;;;;;;;5006034;28;20026;-65
2021/01/11 04:18:12;;;;;;;16.27;12.55;;;;;;;;;;5007374;28;20117;-65
2021/01/11 04:20:38;;;;;;;18.50;12.65;;;;;;;;;;5005323;28;20057;-65
2021/01/11 04:23:04;;;;;;;17.90;12.15;;;;;;;;;;5006036;28;20060;-67
2021/01/11 04:25:30;;;;;;;17.52;11.93;;;;;;;;;;5006604;28;20068;-65
2021/01/11 04:27:57;;;;;;;16.48;11.98;;;;;;;;;;5002095;28;20062;-64
2021/01/11 04:30:23;;;;;;;19.90;11.85;;;;;;;;;;5004514;28;20034;-64
2021/01/11 04:32:48;;;;;;;19.15;11.93;;;;;;;;;;5007204;28;20034;-64
2021/01/11 04:35:14;;;;;;;18.08;13.02;;;;;;;;;;5006949;28;20036;-64
2021/01/11 04:37:42;;;;;;;17.45;11.95;;;;;;;;;;5002145;28;20162;-64
2021/01/11 04:40:09;;;;;;;24.75;13.23;;;;;;;;;;4990475;28;20081;-64
2021/01/11 04:42:46;;;;;;;18.75;11.57;;;;;;;;;;5005287;28;20065;-64
2021/01/11 04:45:12;;;;;;;18.90;12.35;;;;;;;;;;5003703;28;20369;-64
2021/01/11 04:47:38;;;;;;;18.10;12.43;;;;;;;;;;4999488;28;20038;-64
2021/01/11 04:50:04;;;;;;;18.10;11.98;;;;;;;;;;5007137;28;20037;-64
2021/01/11 04:52:31;;;;;;;18.05;12.00;;;;;;;;;;5002258;28;20553;-64
2021/01/11 04:55:01;;;;;;;21.42;13.02;;;;;;;;;;5005736;28;20065;-65
2021/01/11 04:57:32;;;;;;;18.67;12.57;;;;;;;;;;4997367;28;20038;-65
2021/01/11 05:00:01;;;;;;;18.50;12.60;;;;;;;;;;5003365;28;20034;-63
2021/01/11 05:02:28;;;;;;;20.17;13.40;;;;;;;;;;5002670;28;20041;-63
2021/01/11 05:04:56;;;;;;;23.02;13.45;;;;;;;;;;4997639;28;20033;-61
2021/01/11 05:07:22;;;;;;;18.80;13.38;;;;;;;;;;5002785;28;20061;-62
2021/01/11 05:09:48;;;;;;;20.00;12.88;;;;;;;;;;5005103;28;20059;-62
2021/01/11 05:12:14;;;;;;;21.25;13.98;;;;;;;;;;5004987;28;20492;-62
2021/01/11 05:14:41;;;;;;;20.10;13.50;;;;;;;;;;5004572;28;20088;-61
2021/01/11 05:17:06;;;;;;;22.25;13.32;;;;;;;;;;5007163;28;20037;-61
2021/01/11 05:19:32;;;;;;;23.00;13.85;;;;;;;;;;5005053;28;20030;-61
2021/01/11 05:21:58;;;;;;;21.10;13.77;;;;;;;;;;5007256;28;20026;-62
2021/01/11 05:24:40;;;;;;;20.35;13.77;;;;;;;;;;5003916;28;20512;-61
2021/01/11 05:27:09;;;;;;;19.13;12.85;;;;;;;;;;5007011;28;20036;-61
2021/01/11 05:29:37;;;;;;;20.80;13.20;;;;;;;;;;5005605;28;20041;-61
2021/01/11 05:32:05;;;;;;;18.67;13.07;;;;;;;;;;5004269;28;20090;-61
2021/01/11 05:34:53;;;;;;;17.30;13.10;;;;;;;;;;5002884;28;20132;-61
2021/01/11 05:37:39;;;;;;;18.27;13.45;;;;;;;;;;5004786;28;20481;-61
2021/01/11 05:40:23;;;;;;;24.13;12.77;;;;;;;;;;5001963;28;20050;-61
2021/01/11 05:42:55;;;;;;;21.17;12.93;;;;;;;;;;5003269;28;20034;-61
2021/01/11 05:45:27;;;;;;;23.40;12.63;;;;;;;;;;5004740;28;20030;-61
2021/01/11 05:48:00;;;;;;;24.70;13.73;;;;;;;;;;5005036;28;20026;-61
2021/01/11 05:50:28;;;;;;;18.25;13.40;;;;;;;;;;5003907;28;20041;-61
2021/01/11 05:52:53;;;;;;;19.70;13.43;;;;;;;;;;5003531;28;20472;-61
2021/01/11 05:55:23;;;;;;;22.25;13.25;;;;;;;;;;5002972;28;20048;-61
2021/01/11 05:58:10;;;;;;;20.58;13.68;;;;;;;;;;5006018;28;20046;-61
2021/01/11 06:00:37;;;;;;;23.73;14.45;;;;;;;;;;5005325;28;20420;-61
2021/01/11 06:03:05;;;;;;;21.85;14.50;;;;;;;;;;5004338;28;20069;-61
2021/01/11 06:05:31;;;;;;;20.60;13.00;;;;;;;;;;5004825;28;20041;-61
2021/01/11 06:07:58;;;;;;;19.73;13.30;;;;;;;;;;5007334;28;20061;-61
2021/01/11 06:10:25;;;;;;;21.17;14.95;;;;;;;;;;5006200;28;20115;-61
2021/01/11 06:12:51;;;;;;;20.60;14.45;;;;;;;;;;5009911;28;20038;-62
2021/01/11 06:15:18;;;;;;;20.90;14.52;;;;;;;;;;5009586;28;20041;-61
2021/01/11 06:17:45;;;;;;;22.45;15.68;;;;;;;;;;5004374;28;20420;-62
2021/01/11 06:20:22;;;;;;;19.73;14.30;;;;;;;;;;5007896;28;20579;-61
2021/01/11 06:22:47;;;;;;;22.10;14.32;;;;;;;;;;5006782;28;20049;-62
2021/01/11 06:25:19;;;;;;;20.20;13.95;;;;;;;;;;5007014;28;20033;-61
2021/01/11 06:28:02;;;;;;;22.20;14.20;;;;;;;;;;5008869;28;20034;-62
2021/01/11 06:30:37;;;;;;;20.20;14.15;;;;;;;;;;5005569;28;20444;-62
2021/01/11 06:33:17;;;;;;;25.13;17.10;;;;;;;;;;5002394;28;20052;-62
2021/01/11 06:35:46;;;;;;;24.70;16.27;;;;;;;;;;4999583;28;20030;-62
2021/01/11 06:38:25;;;;;;;22.15;15.07;;;;;;;;;;4991967;28;20512;-62
2021/01/11 06:41:03;;;;;;;21.58;14.23;;;;;;;;;;5002509;28;20045;-62
2021/01/11 06:43:44;;;;;;;17.27;13.05;;;;;;;;;;5005564;28;20046;-62
2021/01/11 06:46:11;;;;;;;17.10;11.87;;;;;;;;;;5009487;28;20046;-62
2021/01/11 06:48:40;;;;;;;24.70;15.80;;;;;;;;;;5006464;28;20357;-62
2021/01/11 06:51:07;;;;;;;23.13;14.93;;;;;;;;;;5008725;28;20046;-62
2021/01/11 06:53:32;;;;;;;39.90;23.88;;;;;;;;;;5008364;28;20064;-62
2021/01/11 06:56:09;;;;;;;23.30;15.95;;;;;;;;;;5009242;28;20056;-62
2021/01/11 06:58:39;;;;;;;21.02;13.40;;;;;;;;;;5005083;28;20139;-62
2021/01/11 07:01:11;;;;;;;23.17;13.45;;;;;;;;;;5003479;28;20085;-62
2021/01/11 07:03:46;;;;;;;22.17;14.20;;;;;;;;;;5006023;28;20614;-62
2021/01/11 07:06:44;;;;;;;19.90;13.77;;;;;;;;;;5003008;28;20037;-62
2021/01/11 07:09:18;;;;;;;19.80;14.27;;;;;;;;;;4971193;28;20524;-62
2021/01/11 07:11:45;;;;;;;20.75;13.27;;;;;;;;;;5005470;28;20036;-62
2021/01/11 07:14:12;;;;;;;19.50;14.38;;;;;;;;;;5008614;28;20125;-61
2021/01/11 07:16:42;;;;;;;19.23;14.23;;;;;;;;;;5006221;28;20042;-62
2021/01/11 07:19:08;;;;;;;19.13;13.65;;;;;;;;;;5007921;28;20076;-62
2021/01/11 07:21:35;;;;;;;18.58;13.75;;;;;;;;;;5007061;28;20057;-62
2021/01/11 07:24:03;;;;;;;29.90;16.38;;;;;;;;;;5006890;28;20094;-62
2021/01/11 07:26:29;;;;;;;23.45;14.63;;;;;;;;;;5004934;28;20770;-62
2021/01/11 07:29:00;;;;;;;24.35;15.90;;;;;;;;;;5007289;28;20038;-61
2021/01/11 07:31:28;;;;;;;26.67;16.57;;;;;;;;;;5003140;28;20173;-61
2021/01/11 07:34:05;;;;;;;24.35;17.20;;;;;;;;;;5008524;28;20275;-62
2021/01/11 07:36:39;;;;;;;23.27;15.07;;;;;;;;;;5004227;28;20936;-62
2021/01/11 07:39:26;;;;;;;20.75;15.05;;;;;;;;;;5004672;28;20076;-62
2021/01/11 07:41:58;;;;;;;23.85;14.75;;;;;;;;;;5005152;28;20132;-62
2021/01/11 07:44:33;;;;;;;21.05;13.32;;;;;;;;;;5007643;28;20053;-62
2021/01/11 07:47:00;;;;;;;18.90;14.88;;;;;;;;;;5005163;28;20049;-61
2021/01/11 07:49:28;;;;;;;22.15;14.57;;;;;;;;;;5006177;28;20041;-62
2021/01/11 07:51:54;;;;;;;20.70;14.20;;;;;;;;;;5003637;28;20038;-62
2021/01/11 07:54:21;;;;;;;24.30;15.25;;;;;;;;;;5005959;28;20084;-62
2021/01/11 07:56:48;;;;;;;22.65;14.57;;;;;;;;;;5006949;28;20463;-62
2021/01/11 07:59:14;;;;;;;21.08;14.95;;;;;;;;;;5005761;28;20679;-62
2021/01/11 08:01:42;;;;;;;22.95;14.90;;;;;;;;;;5003771;28;20109;-62
2021/01/11 08:04:10;;;;;;;22.63;15.10;;;;;;;;;;5001423;28;20022;-62
2021/01/11 08:06:55;;;;;;;22.90;14.90;;;;;;;;;;5005672;28;20034;-62
2021/01/11 08:09:25;;;;;;;20.00;14.95;;;;;;;;;;5006635;28;20036;-63
2021/01/11 08:12:16;;;;;;;22.10;15.13;;;;;;;;;;5007494;28;20342;-62
2021/01/11 08:14:45;;;;;;;20.80;14.07;;;;;;;;;;5005733;28;20060;-63
2021/01/11 08:17:20;;;;;;;24.35;14.77;;;;;;;;;;5007215;28;20060;-63
2021/01/11 08:19:55;;;;;;;21.85;14.45;;;;;;;;;;5005688;28;20021;-63
2021/01/11 08:22:22;;;;;;;24.55;16.25;;;;;;;;;;5003365;28;20538;-62
2021/01/11 08:24:49;;;;;;;23.15;15.00;;;;;;;;;;5007637;28;20041;-63
2021/01/11 08:27:39;;;;;;;20.25;14.93;;;;;;;;;;5007157;28;20038;-62
2021/01/11 08:30:08;;;;;;;23.67;15.05;;;;;;;;;;5000930;28;20038;-62
2021/01/11 08:32:34;;;;;;;23.08;14.52;;;;;;;;;;5005276;28;20108;-62
2021/01/11 08:35:10;;;;;;;23.05;15.40;;;;;;;;;;5007049;28;20109;-62
2021/01/11 08:37:36;;;;;;;21.08;14.90;;;;;;;;;;5005062;28;20041;-62
2021/01/11 08:40:17;;;;;;;25.20;17.25;;;;;;;;;;5004050;28;20026;-62
2021/01/11 08:42:43;;;;;;;25.23;17.20;;;;;;;;;;5006435;28;20531;-62
2021/01/11 08:45:26;;;;;;;22.95;16.02;;;;;;;;;;5007072;28;20045;-62
2021/01/11 08:48:05;;;;;;;20.95;15.15;;;;;;;;;;5002225;28;20045;-61
2021/01/11 08:50:40;;;;;;;19.55;14.35;;;;;;;;;;5005331;28;20065;-62
2021/01/11 08:53:25;;;;;;;20.25;15.10;;;;;;;;;;5007233;28;20037;-62
2021/01/11 08:56:09;;;;;;;19.95;14.73;;;;;;;;;;5004278;28;20050;-61
2021/01/11 08:58:47;;;;;;;22.40;15.15;;;;;;;;;;5006266;28;20057;-62
2021/01/11 09:01:13;;;;;;;19.63;14.30;;;;;;;;;;5004070;28;20472;-62
2021/01/11 09:03:55;;;;;;;20.40;14.85;;;;;;;;;;5002189;28;20061;-63
2021/01/11 09:06:46;;;;;;;19.10;13.88;;;;;;;;;;5006387;28;20038;-64
2021/01/11 09:09:25;;;;;;;21.33;14.13;;;;;;;;;;5003434;28;20076;-64
2021/01/11 09:11:59;;;;;;;22.35;14.75;;;;;;;;;;5006525;28;20076;-64
2021/01/11 09:14:24;;;;;;;19.48;13.88;;;;;;;;;;5003514;28;20041;-64
2021/01/11 09:16:56;;;;;;;20.17;14.13;;;;;;;;;;5006617;28;20648;-64
2021/01/11 09:19:22;;;;;;;22.23;14.18;;;;;;;;;;5003281;28;20034;-64
2021/01/11 09:22:17;;;;;;;24.45;14.77;;;;;;;;;;5005564;28;20461;-64
2021/01/11 09:24:43;;;;;;;22.80;15.73;;;;;;;;;;5005842;28;20349;-64
2021/01/11 09:27:09;;;;;;;21.63;15.45;;;;;;;;;;5001779;28;20039;-64
2021/01/11 09:29:35;;;;;;;21.92;15.85;;;;;;;;;;5001644;28;20044;-64
2021/01/11 09:32:01;;;;;;;24.83;16.75;;;;;;;;;;5005416;28;20096;-64
2021/01/11 09:34:26;;;;;;;23.27;17.33;;;;;;;;;;5005418;28;20034;-64
2021/01/11 09:36:52;;;;;;;26.52;17.45;;;;;;;;;;5004668;28;20049;-64
2021/01/11 09:39:17;;;;;;;21.67;15.55;;;;;;;;;;5004018;28;20115;-64
2021/01/11 09:41:48;;;;;;;19.05;14.80;;;;;;;;;;5001512;28;20036;-65
2021/01/11 09:44:15;;;;;;;24.42;17.05;;;;;;;;;;5008515;28;20084;-65
2021/01/11 09:46:42;;;;;;;23.92;16.88;;;;;;;;;;5008324;28;20205;-65
2021/01/11 09:49:08;;;;;;;26.67;16.13;;;;;;;;;;5007994;28;20052;-65
2021/01/11 09:51:33;;;;;;;21.20;16.48;;;;;;;;;;5009071;28;20459;-65
2021/01/11 09:53:59;;;;;;;23.63;16.60;;;;;;;;;;5006933;28;20457;-65
2021/01/11 09:56:24;;;;;;;20.63;15.15;;;;;;;;;;5005547;28;20088;-65
2021/01/11 09:58:53;;;;;;;20.13;16.13;;;;;;;;;;5006250;28;20077;-65
2021/01/11 10:01:19;;;;;;;24.38;16.38;;;;;;;;;;5009172;28;20072;-65
2021/01/11 10:03:44;;;;;;;27.13;18.05;;;;;;;;;;5008267;28;20026;-65
2021/01/11 10:06:10;;;;;;;23.67;15.75;;;;;;;;;;5006473;28;20117;-65
2021/01/11 10:08:35;;;;;;;23.58;16.98;;;;;;;;;;5008935;28;20030;-65
2021/01/11 10:11:04;;;;;;;24.35;17.38;;;;;;;;;;5009832;28;20045;-65
2021/01/11 10:13:29;;;;;;;25.10;18.67;;;;;;;;;;5006603;28;20041;-65
2021/01/11 10:15:55;;;;;;;26.35;17.80;;;;;;;;;;5009566;28;20368;-65
2021/01/11 10:18:20;;;;;;;22.10;18.23;;;;;;;;;;5008373;28;20030;-65
2021/01/11 10:20:45;;;;;;;24.27;16.77;;;;;;;;;;5008250;28;20044;-64
2021/01/11 10:23:11;;;;;;;26.02;17.77;;;;;;;;;;5009739;28;20032;-65
2021/01/11 10:25:36;;;;;;;23.95;16.77;;;;;;;;;;5008948;28;20034;-65
2021/01/11 10:28:01;;;;;;;26.10;17.13;;;;;;;;;;5006022;28;20060;-65
2021/01/11 10:30:27;;;;;;;24.73;17.65;;;;;;;;;;5008610;28;20048;-65
2021/01/11 10:32:52;;;;;;;25.75;17.83;;;;;;;;;;5007855;28;20026;-65
2021/01/11 10:35:17;;;;;;;25.00;17.83;;;;;;;;;;5009819;28;20042;-65
2021/01/11 10:37:43;;;;;;;22.00;16.70;;;;;;;;;;5006064;28;20030;-65
2021/01/11 10:40:09;;;;;;;29.75;18.08;;;;;;;;;;5009447;28;20038;-65
2021/01/11 10:42:34;;;;;;;22.40;17.58;;;;;;;;;;5006755;28;20042;-65
2021/01/11 10:45:00;;;;;;;23.20;16.13;;;;;;;;;;5008021;28;20373;-65
2021/01/11 10:47:25;;;;;;;22.23;16.98;;;;;;;;;;5003857;28;20104;-66
2021/01/11 10:49:51;;;;;;;21.63;17.20;;;;;;;;;;5006382;28;20344;-66
2021/01/11 10:52:16;;;;;;;26.05;17.90;;;;;;;;;;5006173;28;20339;-66
2021/01/11 10:54:41;;;;;;;22.60;17.58;;;;;;;;;;5006183;28;20041;-66
2021/01/11 10:57:07;;;;;;;25.52;16.90;;;;;;;;;;5007526;28;20038;-66
2021/01/11 10:59:32;;;;;;;23.13;17.48;;;;;;;;;;5007139;28;20026;-67
2021/01/11 11:01:57;;;;;;;26.00;18.15;;;;;;;;;;5008087;28;20087;-66
2021/01/11 11:04:23;;;;;;;24.23;17.98;;;;;;;;;;5006011;28;20137;-66
2021/01/11 11:06:49;;;;;;;23.65;17.65;;;;;;;;;;5005908;28;20055;-67
2021/01/11 11:09:15;;;;;;;23.70;17.30;;;;;;;;;;5008726;28;20477;-66
2021/01/11 11:11:40;;;;;;;25.02;16.77;;;;;;;;;;5007790;28;20038;-66
2021/01/11 11:14:05;;;;;;;32.88;18.10;;;;;;;;;;5005858;28;20458;-67
2021/01/11 11:16:31;;;;;;;25.33;18.13;;;;;;;;;;5007060;28;20030;-67
2021/01/11 11:18:56;;;;;;;32.53;19.63;;;;;;;;;;5004860;28;20036;-67
2021/01/11 11:21:22;;;;;;;22.83;18.25;;;;;;;;;;5006637;28;20034;-66
2021/01/11 11:23:47;;;;;;;23.67;17.65;;;;;;;;;;5008046;28;20629;-66
2021/01/11 11:26:19;;;;;;;25.90;17.40;;;;;;;;;;5007872;28;20037;-67
2021/01/11 11:28:44;;;;;;;;;;;;;;;;;;5008686;28;20029;-66
2021/01/11 11:31:09;;;;;;;26.75;18.70;;;;;;;;;;5008431;28;19920;-67
2021/01/11 11:33:36;;;;;;;26.48;19.27;;;;;;;;;;5003709;28;20038;-67
2021/01/11 11:36:01;;;;;;;25.38;19.42;;;;;;;;;;5008288;28;20038;-67
2021/01/11 11:38:27;;;;;;;27.40;18.70;;;;;;;;;;5007180;28;20083;-66
2021/01/11 11:40:52;;;;;;;31.50;21.67;;;;;;;;;;5004866;28;20479;-66
2021/01/11 11:43:18;;;;;;;28.50;17.17;;;;;;;;;;5003644;28;20069;-66
2021/01/11 11:45:43;;;;;;;23.10;18.83;;;;;;;;;;5003740;28;20081;-66
2021/01/11 11:48:12;;;;;;;26.70;19.38;;;;;;;;;;5003631;28;20116;-67
2021/01/11 11:50:39;;;;;;;40.28;27.85;;;;;;;;;;4999488;28;20057;-66
2021/01/11 11:53:04;;;;;;;25.55;17.60;;;;;;;;;;5002540;28;20476;-66
2021/01/11 11:55:30;;;;;;;28.08;19.17;;;;;;;;;;5001998;28;20120;-66
2021/01/11 11:57:55;;;;;;;24.55;18.42;;;;;;;;;;5000788;28;20428;-66
2021/01/11 12:00:21;;;;;;;29.05;18.65;;;;;;;;;;5005382;28;20049;-66
2021/01/11 12:02:48;;;;;;;23.33;18.02;;;;;;;;;;5004402;28;20726;-66
2021/01/11 12:05:16;;;;;;;24.75;18.20;;;;;;;;;;5005240;28;20033;-66
2021/01/11 12:07:42;;;;;;;24.75;18.15;;;;;;;;;;5002296;28;20721;-65
2021/01/11 12:10:10;;;;;;;23.98;17.67;;;;;;;;;;5004368;28;20133;-65
2021/01/11 12:12:35;;;;;;;24.83;18.45;;;;;;;;;;5005117;28;20068;-65
2021/01/11 12:15:04;;;;;;;25.67;18.88;;;;;;;;;;5007359;28;20547;-64
2021/01/11 12:17:30;;;;;;;24.77;17.70;;;;;;;;;;5005507;28;20034;-65
2021/01/11 12:19:55;;;;;;;27.73;18.65;;;;;;;;;;5002125;28;20532;-65
2021/01/11 12:22:21;;;;;;;23.55;17.48;;;;;;;;;;5006526;28;20485;-65
2021/01/11 12:24:46;;;;;;;26.80;17.63;;;;;;;;;;5007582;28;20365;-65
2021/01/11 12:27:11;;;;;;;25.85;17.50;;;;;;;;;;5005936;28;20045;-65
2021/01/11 12:29:37;;;;;;;23.42;18.65;;;;;;;;;;5001158;28;20037;-65
2021/01/11 12:32:07;;;;;;;22.75;17.08;;;;;;;;;;4995173;28;20018;-65
2021/01/11 12:34:34;;;;;;;22.83;18.20;;;;;;;;;;4997294;28;20031;-66
2021/01/11 12:37:01;;;;;;;21.58;16.08;;;;;;;;;;4992863;28;20034;-66
2021/01/11 12:39:27;;;;;;;21.00;16.50;;;;;;;;;;4996410;28;20021;-65
2021/01/11 12:41:53;;;;;;;21.00;16.02;;;;;;;;;;5001372;28;20042;-66
2021/01/11 12:44:18;;;;;;;22.98;17.10;;;;;;;;;;4993579;28;20087;-66
2021/01/11 12:46:43;;;;;;;21.30;16.00;;;;;;;;;;5000977;28;20061;-66
2021/01/11 12:49:09;;;;;;;19.63;16.17;;;;;;;;;;5004100;28;20477;-66
2021/01/11 12:51:34;;;;;;;21.25;15.55;;;;;;;;;;5000665;28;20420;-65
2021/01/11 12:54:00;;;;;;;22.73;16.02;;;;;;;;;;5006107;28;20449;-65
2021/01/11 12:56:27;;;;;;;20.70;16.15;;;;;;;;;;5001071;28;20449;-65
2021/01/11 12:58:54;;;;;;;22.20;17.00;;;;;;;;;;5001695;28;20478;-66
2021/01/11 13:01:24;;;;;;;22.58;17.63;;;;;;;;;;4984699;28;20045;-66
2021/01/11 13:03:51;;;;;;;22.90;16.52;;;;;;;;;;5001003;28;20950;-65
2021/01/11 13:06:34;;;;;;;24.95;16.58;;;;;;;;;;5001731;28;20034;-65
2021/01/11 13:09:01;;;;;;;22.98;15.77;;;;;;;;;;5000262;28;20135;-65
2021/01/11 13:11:28;;;;;;;17.92;14.85;;;;;;;;;;5002730;28;20034;-65
2021/01/11 13:13:56;;;;;;;21.70;16.00;;;;;;;;;;5004238;28;20033;-65
2021/01/11 13:16:23;;;;;;;18.10;14.95;;;;;;;;;;5005501;28;20056;-65
2021/01/11 13:18:49;;;;;;;20.85;15.20;;;;;;;;;;5010213;28;20388;-65
2021/01/11 13:21:14;;;;;;;25.95;16.67;;;;;;;;;;5011367;28;20030;-65
2021/01/11 13:23:40;;;;;;;24.77;15.77;;;;;;;;;;5011590;28;20031;-65
2021/01/11 13:26:05;;;;;;;19.23;14.43;;;;;;;;;;5010395;28;20113;-65
2021/01/11 13:28:30;;;;;;;19.70;14.88;;;;;;;;;;5011651;28;20158;-64
2021/01/11 13:30:56;;;;;;;21.95;15.85;;;;;;;;;;5013346;28;20040;-65
2021/01/11 13:33:24;;;;;;;18.88;14.90;;;;;;;;;;5011802;28;20048;-65
2021/01/11 13:35:50;;;;;;;21.02;15.75;;;;;;;;;;5010564;28;20037;-65
2021/01/11 13:38:17;;;;;;;21.27;14.10;;;;;;;;;;5012883;28;20117;-65
2021/01/11 13:40:43;;;;;;;16.50;13.98;;;;;;;;;;5012224;28;20030;-65
2021/01/11 13:43:08;;;;;;;17.70;13.68;;;;;;;;;;5011993;28;20118;-65
2021/01/11 13:45:34;;;;;;;18.95;13.90;;;;;;;;;;5023176;28;20042;-65
2021/01/11 13:47:59;;;;;;;25.10;15.75;;;;;;;;;;5007868;28;20594;-65
2021/01/11 13:50:24;;;;;;;22.20;15.55;;;;;;;;;;5005596;28;20026;-65
2021/01/11 13:52:50;;;;;;;17.98;14.35;;;;;;;;;;5009390;28;20120;-65
2021/01/11 13:55:15;;;;;;;19.00;14.63;;;;;;;;;;5006286;28;20099;-65
2021/01/11 13:57:40;;;;;;;20.38;13.90;;;;;;;;;;5010638;28;20038;-65
2021/01/11 14:00:08;;;;;;;23.67;14.27;;;;;;;;;;5006957;28;20155;-65
2021/01/11 14:02:33;;;;;;;19.05;13.90;;;;;;;;;;5002568;28;20520;-65
2021/01/11 14:04:59;;;;;;;17.95;14.23;;;;;;;;;;5010140;28;20041;-65
2021/01/11 14:07:28;;;;;;;17.48;13.73;;;;;;;;;;5008766;28;20042;-64
2021/01/11 14:09:54;;;;;;;18.13;13.60;;;;;;;;;;5012025;28;20049;-65
2021/01/11 14:12:19;;;;;;;17.80;12.88;;;;;;;;;;5009099;28;20369;-64
2021/01/11 14:14:44;;;;;;;21.33;13.25;;;;;;;;;;5009578;28;20508;-65
2021/01/11 14:17:10;;;;;;;18.52;13.23;;;;;;;;;;5009572;28;20537;-64
2021/01/11 14:19:35;;;;;;;17.45;13.05;;;;;;;;;;5009182;28;20533;-64
2021/01/11 14:22:00;;;;;;;15.38;12.65;;;;;;;;;;5010836;28;20427;-64
2021/01/11 14:24:25;;;;;;;16.35;12.77;;;;;;;;;;5011763;28;20040;-64
2021/01/11 14:26:51;;;;;;;18.40;12.63;;;;;;;;;;5011721;28;20052;-64